Evanston Uinta County Burns Field
KEVW : now visible

Airfield :











YOU CAN JOIN US ON...

 
LOGIN :

Register | Disclaimer

   EN    FR    IT 

 









Legend :    VFR   Marginal VFR   IFR   Intensive IFR   Very Intensive IFR
Visi :
Ceiling :
>= 8 km
>= 3000ft
5 to 8 km
1000 to 3000 ft
1500m to 5 km
500 to 1000 ft
800 to 1500m
200 to 500 ft
< 800m
< 200 ft
Symbols :   Thunderstorms  Fog  Heavy snow  Heavy precipitations  Wind > 20 kt






- Airport Elevation : 7143 ft


KEVW - Evanston Uinta County Burns Field

CURRENT METAR :
  • 160718Z AUTO 23010KT 10SM OVC028 M01/M06 A3023 RMK AO2 T10061061

EXPIRED METARs :
  • 160653Z AUTO 25011KT 10SM OVC034 M01/M06 A3023 RMK AO2 SLP233 T10061061 400561089
  • 160553Z AUTO 25016KT 10SM FEW050 SCT075 OVC090 01/M08 A3023 RMK AO2 SLP237 T00061078 10022 21006 58006
  • 160453Z AUTO 25009KT 10SM FEW080 BKN110 01/M08 A3024 RMK AO2 SLP258 T00061078

TAF KEVW
Valid from the 16 at 06:00 until the 17 at 06:00 UTC


160528Z 1606/1706 25011KT P6SM VCSH SCT050 BKN100
FM161200 26011KT P6SM FEW030 BKN050
FM161700 25011KT P6SM FEW030 SCT050
KZLC FIR / North America



MET'MAP, your aeronautical weather chart ! - Copyright ORBIFLY December 2007 - Disclaimer

ORBIFLY MET'MAP TEAM :

Programming & Development : Alexandra Zaïnal
Concept & original design : Baudouin d'Aumeries
Assistance for programming : Marc-Olivier Méhu
Technical & hardware support : Manuel Goepfert

Contact : metmap@orbifly.com




SOURCES & CREDITS :

   NOAA       Earth
Advisory